*** The Vicarage Weather Feed ***

Nearby METAR Reports


 

CYOO - Oshawa, Municipal Airport, Ontario, Canada
Distance from station: NW 3.2km
Updated: 20/10/2019 17:00
Partly cloudy
Partly cloudy
 Wind from SE
Wind: SE 7 km/h
Temperature: 14°C
Dew Point: 8°C
Humidity: 67%
Barometer: 1013.5 hPa
Clouds: Partly cloudy
Visibility: 14 km
Cloud details: Partly cloudy 3658 m
2019/10/20 21:00 CYOO 202100Z AUTO 13004KT 110V180 9SM SCT120 14/08 A2993 RMK SLP138
CYKZ - Toronto, Buttonville, Municipal Airport, Ontario, Canada
Distance from station: W 39.75km
Updated: 03/01/2019 04:00
NOT Current
Partly cloudy
Partly cloudy
 Wind from WSW
Wind: WSW 7 km/h
Temperature: -3°C
Wind Chill: -6°C
Dew Point: -5°C
Humidity: 86%
Barometer: 1010.8 hPa
Clouds: Partly cloudy
Visibility: 24 km
Cloud details: Partly cloudy 1219 m
2019/01/03 09:00 CYKZ 030900Z 25004KT 15SM SCT040 M03/M05 A2985 RMK SC3 LAST STFD OBS FAREWELL SLP118
 
CXTO - Toronto City, Buttonville, Ontario, Canada
Distance from station: WSW 49km
Updated: 20/10/2019 17:00

 
Temperature: 14°C
Dew Point: 8°C
Humidity: 67%
2019/10/20 21:00 CXTO 202100Z AUTO 14/08 RMK AO1 SLP138 T01440078 53004
CYTZ - Toronto City, Island Airport, Ontario, Canada
Distance from station: SW 51.7km
Updated: 20/10/2019 17:00
Clear
Clear
 Wind from ENE
Wind: ENE 17 km/h
Temperature: 14°C
Dew Point: 10°C
Humidity: 77%
Barometer: 1013.2 hPa
Clouds: Clear
Visibility: 14 km
2019/10/20 21:00 CYTZ 202100Z AUTO 07009KT 9SM CLR 14/10 A2992 RMK SLP133
 
CYPQ - Toronto, Peterborough Airport, Ontario, Canada
Distance from station: NE 54km
Updated: 20/10/2019 17:00
Mostly cloudy
Mostly cloudy
 Wind from S
Wind: S 11 km/h
Temperature: 17°C
Dew Point: 8°C
Humidity: 56%
Barometer: 1013.2 hPa
Clouds: Mostly cloudy
Visibility: 14 km
Cloud details: Mostly cloudy 3962 m
2019/10/20 21:00 CYPQ 202100Z AUTO 18006KT 130V190 9SM BKN130 17/08 A2992 RMK SLP138 DENSITY ALT 900FT
CWNC - Cobourg, (mars), Ontario, Canada
Distance from station: E 57km
Updated: 20/10/2019 17:00

 Wind from E
Wind: E 6 km/h
Temperature: 12°C
Dew Point: 9°C
Humidity: 82%
2019/10/20 21:00 CWNC 202100Z AUTO 10003KT 12/09 RMK AO1 SLP140 T01210088 53009
 
CYYZ - Toronto, Lester Pearson Airport, Ontario, Canada
Distance from station: W 65.5km
Updated: 20/10/2019 17:00
Few Clouds
Few Clouds
 Wind from SE
Wind: SE 13 km/h
Temperature: 15°C
Dew Point: 10°C
Humidity: 72%
Barometer: 1012.9 hPa
Clouds: Few Clouds
Visibility: 24 km
Cloud details: Few Clouds 3962 m
2019/10/20 21:00 CYYZ 202100Z 14007KT 15SM FEW130 15/10 A2991 RMK AC1 AC TR SLP132 DENSITY ALT 800FT
CWGL - Lagoon City, Ontario, Canada
Distance from station: NNW 74km
Updated: 20/10/2019 17:00

 Wind from calm
Wind: Calm
Temperature: 15°C
Dew Point: 7°C
Humidity: 59%
2019/10/20 21:00 CWGL 202100Z AUTO 00000KT 15/07 RMK AO1 SLP118 T01500072 53005
 
CWWZ - Port Weller Airport, Ontario, Canada
Distance from station: SSW 77km
Updated: 20/10/2019 17:00

 Wind from ENE
Wind: ENE 17 km/h
Temperature: 14°C
Dew Point: 12°C
Humidity: 88%
2019/10/20 21:00 CWWZ 202100Z AUTO 07009KT 14/12 RMK AO1 SLP133 T01410116 53006
CYSN - St.Catharines Niagara Airport, Ontario, Canada
Distance from station: SSW 81km
Updated: 20/10/2019 17:00
Partly cloudy
Partly cloudy
 Wind from NNE
Wind: NNE 11 km/h
Temperature: 16°C
Dew Point: 11°C
Humidity: 72%
Barometer: 1012.9 hPa
Clouds: Partly cloudy
Visibility: 24 km
Cloud details: Partly cloudy 7620 m
2019/10/20 21:00 CYSN 202100Z 03006KT 15SM SCT250 16/11 A2991 RMK CI3 SLP132 DENSITY ALT 500FT
This data is offered only as a general guide to local weather conditions. It should not be relied upon in lieu of officially disseminated weather information for determining possible risk to persons or property. This site, including all information contained therein, is made available as is without warranties of any kind, either express or implied. The Vicarage Weather Feed© includes links to other sites for user convenience only. The content of any linked third-party site is not controlled by The Vicarage Weather Feed©. Access to any third-party website through The Vicarage Weather Feed©, regardless of whether or not the third-party site is a linked site, is entirely at the users own risk. Externally sourced content or material is excluded from The Vicarage Weather Feed© copyright and is the copyright and property of the respective provider. Skywarn® and the Skywarn® logo are registered trademarks of the National Oceanic and Atmospheric Administration, used with permission.